Time;durP1;ratioP1;P1;durP2;ratioP2;P2;SDS_P1;SDS_P2;PMS_P1;PMS_P2;Temp;Humidity;BMP_temperature;BMP_pressure;BME280_temperature;BME280_humidity;BME280_pressure;Samples;Min_cycle;Max_cycle;Signal;HPM_P1;HPM_P2
2022/03/21 00:01:01;;;;;;;58.70;22.00;;;;;;;;;;4998178;28;20054;-70
2022/03/21 00:03:28;;;;;;;56.85;22.55;;;;;;;;;;5006889;28;20053;-70
2022/03/21 00:05:54;;;;;;;53.30;21.80;;;;;;;;;;5006736;28;20680;-70
2022/03/21 00:08:22;;;;;;;54.70;22.45;;;;;;;;;;5005380;28;20037;-70
2022/03/21 00:10:49;;;;;;;53.05;22.13;;;;;;;;;;5002360;28;20049;-70
2022/03/21 00:13:15;;;;;;;56.10;22.48;;;;;;;;;;4999766;28;20057;-70
2022/03/21 00:15:44;;;;;;;54.42;22.33;;;;;;;;;;4993014;28;20511;-70
2022/03/21 00:18:13;;;;;;;55.72;22.23;;;;;;;;;;5016079;28;20037;-70
2022/03/21 00:20:40;;;;;;;57.08;21.65;;;;;;;;;;5004991;28;20415;-70
2022/03/21 00:23:05;;;;;;;54.95;20.80;;;;;;;;;;5007350;28;20034;-70
2022/03/21 00:25:30;;;;;;;50.17;21.20;;;;;;;;;;4988898;28;20121;-70
2022/03/21 00:27:56;;;;;;;52.17;21.85;;;;;;;;;;4998094;28;20038;-70
2022/03/21 00:30:21;;;;;;;43.78;17.88;;;;;;;;;;4993481;28;20069;-70
2022/03/21 00:32:47;;;;;;;45.40;19.95;;;;;;;;;;5011024;28;20049;-70
2022/03/21 00:35:15;;;;;;;47.03;18.38;;;;;;;;;;5009171;28;20037;-70
2022/03/21 00:37:40;;;;;;;47.63;19.25;;;;;;;;;;5010503;28;20084;-70
2022/03/21 00:40:07;;;;;;;52.58;20.98;;;;;;;;;;5003765;28;20038;-70
2022/03/21 00:42:34;;;;;;;49.78;20.50;;;;;;;;;;5009961;28;20037;-70
2022/03/21 00:45:04;;;;;;;47.90;20.02;;;;;;;;;;5007413;28;20042;-70
2022/03/21 00:47:31;;;;;;;51.38;20.70;;;;;;;;;;5008165;28;20572;-70
2022/03/21 00:49:57;;;;;;;51.55;20.90;;;;;;;;;;5009961;28;20109;-70
2022/03/21 00:52:22;;;;;;;56.60;20.38;;;;;;;;;;5010597;28;20105;-70
2022/03/21 00:54:48;;;;;;;49.22;19.98;;;;;;;;;;5009896;28;20076;-70
2022/03/21 00:57:13;;;;;;;49.92;21.38;;;;;;;;;;5009979;28;20573;-70
2022/03/21 00:59:38;;;;;;;52.78;20.50;;;;;;;;;;5009541;28;20570;-70
2022/03/21 01:02:04;;;;;;;48.00;21.17;;;;;;;;;;5006659;28;20057;-70
2022/03/21 01:04:29;;;;;;;49.28;19.83;;;;;;;;;;5009709;28;20037;-70
2022/03/21 01:06:55;;;;;;;52.38;20.88;;;;;;;;;;5009450;28;20423;-70
2022/03/21 01:09:20;;;;;;;47.10;19.80;;;;;;;;;;5009528;28;20042;-70
2022/03/21 01:11:46;;;;;;;52.35;20.27;;;;;;;;;;5009935;28;20101;-70
2022/03/21 01:14:11;;;;;;;49.58;18.08;;;;;;;;;;5009129;28;20117;-70
2022/03/21 01:16:37;;;;;;;43.40;18.45;;;;;;;;;;5007651;28;20104;-70
2022/03/21 01:19:03;;;;;;;49.25;19.23;;;;;;;;;;5008822;28;20042;-70
2022/03/21 01:21:34;;;;;;;44.25;19.08;;;;;;;;;;5016110;28;20046;-70
2022/03/21 01:24:00;;;;;;;45.47;19.73;;;;;;;;;;5015501;28;20061;-70
2022/03/21 01:26:25;;;;;;;46.28;18.65;;;;;;;;;;5009534;28;20041;-70
2022/03/21 01:28:51;;;;;;;40.97;17.95;;;;;;;;;;5008171;28;20495;-70
2022/03/21 01:31:16;;;;;;;46.90;18.88;;;;;;;;;;5005848;28;20559;-70
2022/03/21 01:33:41;;;;;;;48.35;18.70;;;;;;;;;;5010008;28;20096;-70
2022/03/21 01:36:07;;;;;;;48.85;18.73;;;;;;;;;;5007588;28;20578;-70
2022/03/21 01:38:34;;;;;;;45.20;19.17;;;;;;;;;;5004749;28;20038;-70
2022/03/21 01:41:00;;;;;;;52.63;20.20;;;;;;;;;;5008838;28;20113;-70
2022/03/21 01:43:25;;;;;;;43.72;18.60;;;;;;;;;;4999102;28;20495;-70
2022/03/21 01:45:51;;;;;;;45.03;18.40;;;;;;;;;;5003868;28;20048;-70
2022/03/21 01:48:16;;;;;;;44.67;19.50;;;;;;;;;;5010107;28;20042;-70
2022/03/21 01:50:42;;;;;;;49.63;19.80;;;;;;;;;;5009747;28;20038;-70
2022/03/21 01:55:56;;;;;;;45.35;18.52;;;;;;;;;;5008775;28;20119;-70
2022/03/21 01:58:22;;;;;;;47.33;18.60;;;;;;;;;;5021293;28;20026;-70
2022/03/21 02:00:48;;;;;;;52.17;20.20;;;;;;;;;;5005371;28;20067;-70
2022/03/21 02:03:14;;;;;;;45.60;18.35;;;;;;;;;;5007374;28;20046;-70
2022/03/21 02:05:39;;;;;;;43.47;17.63;;;;;;;;;;5007223;28;20518;-70
2022/03/21 02:08:05;;;;;;;44.17;19.42;;;;;;;;;;5009642;28;20044;-70
2022/03/21 02:10:31;;;;;;;47.50;19.27;;;;;;;;;;5008890;28;20092;-70
2022/03/21 02:12:57;;;;;;;43.03;18.52;;;;;;;;;;5009420;28;20030;-70
2022/03/21 02:15:23;;;;;;;45.33;19.13;;;;;;;;;;5008677;28;20048;-70
2022/03/21 02:17:56;;;;;;;47.53;18.42;;;;;;;;;;5009477;28;20046;-70
2022/03/21 02:20:24;;;;;;;51.75;19.15;;;;;;;;;;5007984;28;20038;-70
2022/03/21 02:23:13;;;;;;;43.42;19.30;;;;;;;;;;5015649;28;20029;-70
2022/03/21 02:25:41;;;;;;;45.70;18.02;;;;;;;;;;4997268;28;20033;-70
2022/03/21 02:28:09;;;;;;;40.15;18.33;;;;;;;;;;5006840;28;20046;-70
2022/03/21 02:30:38;;;;;;;47.80;16.95;;;;;;;;;;5009840;28;20602;-70
2022/03/21 02:33:04;;;;;;;40.30;17.83;;;;;;;;;;5008136;28;20037;-70
2022/03/21 02:35:30;;;;;;;44.08;17.80;;;;;;;;;;4992047;28;20600;-69
2022/03/21 02:37:56;;;;;;;48.38;18.88;;;;;;;;;;4995168;28;20030;-70
2022/03/21 02:40:22;;;;;;;43.20;17.92;;;;;;;;;;4997956;28;20026;-70
2022/03/21 02:42:49;;;;;;;46.95;19.00;;;;;;;;;;4998837;28;20419;-70
2022/03/21 02:45:14;;;;;;;45.40;17.48;;;;;;;;;;4994961;28;20061;-70
2022/03/21 02:47:40;;;;;;;46.92;17.77;;;;;;;;;;4988127;28;20034;-70
2022/03/21 02:50:08;;;;;;;45.55;18.67;;;;;;;;;;4984988;28;20101;-70
2022/03/21 02:52:35;;;;;;;47.80;18.02;;;;;;;;;;4975483;28;20097;-70
2022/03/21 02:55:00;;;;;;;49.28;18.50;;;;;;;;;;4983583;28;20041;-70
2022/03/21 02:57:27;;;;;;;53.17;18.75;;;;;;;;;;4981147;28;20042;-70
2022/03/21 02:59:53;;;;;;;43.67;17.08;;;;;;;;;;4978860;28;20078;-70
2022/03/21 03:02:18;;;;;;;42.50;17.05;;;;;;;;;;4992976;28;20451;-70
2022/03/21 03:04:43;;;;;;;39.65;17.00;;;;;;;;;;5009214;28;20058;-70
2022/03/21 03:07:09;;;;;;;48.15;19.23;;;;;;;;;;5007227;28;20635;-70
2022/03/21 03:09:34;;;;;;;47.45;18.52;;;;;;;;;;5007410;28;20128;-70
2022/03/21 03:12:00;;;;;;;46.78;18.77;;;;;;;;;;5003998;28;20557;-70
2022/03/21 03:14:25;;;;;;;44.97;17.65;;;;;;;;;;5010973;28;20163;-70
2022/03/21 03:16:51;;;;;;;43.10;18.40;;;;;;;;;;5010901;28;20034;-70
2022/03/21 03:19:16;;;;;;;44.28;18.15;;;;;;;;;;5017887;28;20105;-70
2022/03/21 03:21:44;;;;;;;42.80;18.75;;;;;;;;;;5005495;28;20039;-70
2022/03/21 03:24:11;;;;;;;44.50;17.52;;;;;;;;;;5008621;28;20112;-70
2022/03/21 03:26:37;;;;;;;41.47;17.63;;;;;;;;;;5004227;28;20034;-70
2022/03/21 03:29:03;;;;;;;46.55;17.17;;;;;;;;;;5013753;28;20029;-70
2022/03/21 03:31:29;;;;;;;43.30;17.77;;;;;;;;;;5012322;28;20022;-70
2022/03/21 03:33:54;;;;;;;49.25;18.90;;;;;;;;;;5007326;28;20042;-70
2022/03/21 03:36:20;;;;;;;57.83;19.00;;;;;;;;;;5007150;28;20045;-70
2022/03/21 03:38:46;;;;;;;45.42;18.02;;;;;;;;;;5006548;28;20053;-70
2022/03/21 03:41:13;;;;;;;45.97;18.83;;;;;;;;;;4993541;28;20042;-70
2022/03/21 03:43:38;;;;;;;43.65;17.42;;;;;;;;;;5006495;28;20732;-70
2022/03/21 03:46:04;;;;;;;47.95;18.63;;;;;;;;;;5002433;28;20049;-70
2022/03/21 03:48:29;;;;;;;45.05;18.83;;;;;;;;;;5006477;28;20125;-70
2022/03/21 03:50:55;;;;;;;46.88;18.77;;;;;;;;;;5006968;28;20168;-70
2022/03/21 03:53:21;;;;;;;45.03;18.52;;;;;;;;;;5008436;28;20415;-70
2022/03/21 03:55:46;;;;;;;45.55;17.65;;;;;;;;;;5006396;28;20049;-70
2022/03/21 03:58:12;;;;;;;46.40;17.65;;;;;;;;;;5008206;28;20029;-70
2022/03/21 04:00:37;;;;;;;39.60;16.67;;;;;;;;;;5009013;28;20064;-70
2022/03/21 04:05:47;;;;;;;50.03;18.13;;;;;;;;;;5005399;28;20581;-70
2022/03/21 04:08:12;;;;;;;46.28;18.40;;;;;;;;;;5009808;28;20076;-70
2022/03/21 04:10:38;;;;;;;47.67;17.83;;;;;;;;;;5007476;28;20032;-70
2022/03/21 04:13:03;;;;;;;45.83;18.50;;;;;;;;;;5000965;28;20041;-70
2022/03/21 04:15:29;;;;;;;49.75;18.17;;;;;;;;;;5010381;28;20038;-70
2022/03/21 04:18:02;;;;;;;47.92;17.98;;;;;;;;;;5007034;28;20045;-70
2022/03/21 04:20:31;;;;;;;43.05;17.10;;;;;;;;;;5002200;28;20056;-70
2022/03/21 04:22:57;;;;;;;41.38;17.25;;;;;;;;;;4979614;28;20031;-70
2022/03/21 04:25:23;;;;;;;51.25;19.27;;;;;;;;;;4990135;28;20113;-70
2022/03/21 04:27:48;;;;;;;41.35;16.52;;;;;;;;;;5008241;28;20192;-70
2022/03/21 04:30:14;;;;;;;44.92;17.98;;;;;;;;;;5011523;28;20043;-70
2022/03/21 04:32:39;;;;;;;39.15;16.35;;;;;;;;;;5011550;28;20431;-70
2022/03/21 04:35:06;;;;;;;43.17;16.52;;;;;;;;;;5002798;28;20038;-70
2022/03/21 04:37:31;;;;;;;41.10;16.80;;;;;;;;;;4988577;28;20033;-70
2022/03/21 04:39:56;;;;;;;46.55;17.00;;;;;;;;;;4990194;28;20039;-70
2022/03/21 04:42:22;;;;;;;46.17;17.63;;;;;;;;;;4993478;28;20248;-70
2022/03/21 04:44:50;;;;;;;49.65;17.35;;;;;;;;;;5006554;28;20673;-70
2022/03/21 04:47:16;;;;;;;37.17;16.20;;;;;;;;;;5006652;28;20034;-70
2022/03/21 04:49:41;;;;;;;44.58;17.75;;;;;;;;;;5014636;28;20079;-70
2022/03/21 04:52:06;;;;;;;42.45;17.05;;;;;;;;;;5006004;28;20165;-70
2022/03/21 04:54:32;;;;;;;39.15;16.38;;;;;;;;;;5010969;28;20046;-70
2022/03/21 04:56:58;;;;;;;46.85;17.42;;;;;;;;;;5004010;28;20049;-70
2022/03/21 04:59:23;;;;;;;41.17;16.27;;;;;;;;;;5011147;28;20045;-70
2022/03/21 05:01:48;;;;;;;42.97;17.42;;;;;;;;;;5009921;28;20050;-70
2022/03/21 05:04:14;;;;;;;41.08;16.92;;;;;;;;;;5012103;28;20037;-70
2022/03/21 05:06:39;;;;;;;41.63;16.90;;;;;;;;;;5000278;28;20485;-70
2022/03/21 05:09:05;;;;;;;40.08;16.23;;;;;;;;;;5009238;28;20650;-70
2022/03/21 05:11:31;;;;;;;40.17;16.45;;;;;;;;;;5000627;28;20589;-70
2022/03/21 05:13:56;;;;;;;42.88;15.80;;;;;;;;;;5024740;28;20029;-70
2022/03/21 05:16:22;;;;;;;41.00;16.90;;;;;;;;;;5014285;28;20474;-70
2022/03/21 05:18:49;;;;;;;38.17;16.77;;;;;;;;;;5008596;28;20623;-70
2022/03/21 05:21:15;;;;;;;38.97;15.65;;;;;;;;;;5003383;28;20498;-70
2022/03/21 05:31:52;;;;;;;36.25;14.25;;;;;;;;;;5008814;28;20169;-70
2022/03/21 05:37:01;;;;;;;35.88;14.90;;;;;;;;;;4978833;28;20804;-70
2022/03/21 05:39:26;;;;;;;34.20;14.45;;;;;;;;;;4986754;28;20042;-70
2022/03/21 05:41:52;;;;;;;37.30;15.70;;;;;;;;;;4990389;28;20452;-70
2022/03/21 05:44:18;;;;;;;41.85;15.15;;;;;;;;;;4990202;28;20397;-70
2022/03/21 05:46:43;;;;;;;35.85;14.65;;;;;;;;;;4991202;28;20038;-70
2022/03/21 05:49:08;;;;;;;40.83;14.93;;;;;;;;;;4989776;28;20038;-70
2022/03/21 05:51:36;;;;;;;36.92;15.25;;;;;;;;;;4999023;28;20092;-70
2022/03/21 05:54:08;;;;;;;37.67;14.82;;;;;;;;;;5009846;28;20046;-70
2022/03/21 05:56:34;;;;;;;39.35;15.13;;;;;;;;;;5008065;28;20064;-70
2022/03/21 06:00:20;;;;;;;41.58;14.75;;;;;;;;;;5006473;28;20042;-70
2022/03/21 06:01:45;;;;;;;39.40;14.50;;;;;;;;;;5006464;28;20050;-70
2022/03/21 06:04:11;;;;;;;34.00;14.35;;;;;;;;;;5009774;28;20510;-70
2022/03/21 06:06:36;;;;;;;37.38;14.10;;;;;;;;;;5008380;28;20523;-70
2022/03/21 06:09:03;;;;;;;37.72;14.77;;;;;;;;;;5009630;28;20042;-69
2022/03/21 06:11:29;;;;;;;32.70;14.38;;;;;;;;;;5007943;28;20499;-69
2022/03/21 06:13:54;;;;;;;39.58;14.90;;;;;;;;;;5007840;28;20121;-69
2022/03/21 06:16:20;;;;;;;42.78;15.55;;;;;;;;;;5008076;28;20117;-69
2022/03/21 06:18:46;;;;;;;35.97;14.70;;;;;;;;;;5007011;28;20045;-69
2022/03/21 06:21:12;;;;;;;42.55;15.40;;;;;;;;;;5008615;28;20103;-69
2022/03/21 06:23:37;;;;;;;42.00;15.73;;;;;;;;;;4997537;28;20606;-69
2022/03/21 06:26:03;;;;;;;37.55;14.27;;;;;;;;;;4996245;28;20052;-69
2022/03/21 06:28:30;;;;;;;32.00;12.52;;;;;;;;;;5000012;28;20034;-69
2022/03/21 06:30:56;;;;;;;33.95;13.88;;;;;;;;;;5006604;28;20132;-69
2022/03/21 06:33:25;;;;;;;38.53;12.57;;;;;;;;;;5004680;28;20046;-69
2022/03/21 06:35:50;;;;;;;34.42;12.38;;;;;;;;;;5002320;28;20042;-69
2022/03/21 06:38:16;;;;;;;39.58;14.07;;;;;;;;;;5003401;28;20042;-69
2022/03/21 06:40:42;;;;;;;34.72;13.45;;;;;;;;;;5006004;28;20065;-69
2022/03/21 06:43:08;;;;;;;31.85;13.68;;;;;;;;;;4996712;28;20034;-69
2022/03/21 06:45:33;;;;;;;36.90;15.52;;;;;;;;;;5011288;28;20041;-69
2022/03/21 06:47:59;;;;;;;39.45;13.77;;;;;;;;;;4995012;28;20042;-68
2022/03/21 06:50:25;;;;;;;37.97;13.98;;;;;;;;;;4988057;28;20065;-69
2022/03/21 06:52:50;;;;;;;36.25;13.50;;;;;;;;;;4996005;28;20080;-69
2022/03/21 06:55:16;;;;;;;40.55;14.57;;;;;;;;;;5009168;28;20029;-69
2022/03/21 06:57:42;;;;;;;37.90;15.25;;;;;;;;;;5001389;28;20112;-69
2022/03/21 07:00:08;;;;;;;40.92;17.98;;;;;;;;;;5008797;28;20056;-69
2022/03/21 07:02:34;;;;;;;40.72;16.75;;;;;;;;;;5005112;28;20609;-69
2022/03/21 07:04:59;;;;;;;41.65;16.77;;;;;;;;;;5006257;28;20034;-69
2022/03/21 07:07:25;;;;;;;39.42;16.48;;;;;;;;;;4989011;28;20385;-69
2022/03/21 07:09:51;;;;;;;44.58;16.83;;;;;;;;;;4987850;28;20562;-69
2022/03/21 07:12:17;;;;;;;40.15;15.07;;;;;;;;;;4987981;28;20038;-69
2022/03/21 07:14:43;;;;;;;42.00;15.43;;;;;;;;;;4978485;28;20130;-69
2022/03/21 07:17:08;;;;;;;33.05;13.77;;;;;;;;;;4980070;28;20117;-69
2022/03/21 07:19:34;;;;;;;42.53;14.80;;;;;;;;;;4989190;28;20109;-69
2022/03/21 07:22:00;;;;;;;43.15;15.48;;;;;;;;;;4988180;28;20133;-69
2022/03/21 07:24:26;;;;;;;39.72;15.93;;;;;;;;;;4984841;28;20058;-69
2022/03/21 07:26:51;;;;;;;45.22;16.48;;;;;;;;;;4984699;28;20050;-69
2022/03/21 07:29:17;;;;;;;44.70;14.90;;;;;;;;;;4982583;28;20093;-69
2022/03/21 07:31:42;;;;;;;52.10;16.05;;;;;;;;;;4987185;28;20022;-68
2022/03/21 07:34:07;;;;;;;44.72;14.63;;;;;;;;;;4985737;28;20034;-69
2022/03/21 07:36:34;;;;;;;42.40;15.32;;;;;;;;;;4985821;28;20460;-69
2022/03/21 07:39:00;;;;;;;52.80;16.10;;;;;;;;;;4972917;28;20047;-69
2022/03/21 07:41:26;;;;;;;45.05;14.77;;;;;;;;;;4988690;28;20046;-69
2022/03/21 07:43:57;;;;;;;42.88;14.05;;;;;;;;;;4972760;28;20572;-69
2022/03/21 07:49:06;;;;;;;39.22;12.73;;;;;;;;;;4977998;28;20142;-68
2022/03/21 07:51:31;;;;;;;38.03;13.55;;;;;;;;;;4981044;28;20471;-69
2022/03/21 07:53:57;;;;;;;32.80;12.77;;;;;;;;;;4984633;28;20061;-68
2022/03/21 07:56:23;;;;;;;41.10;12.90;;;;;;;;;;4985823;28;20042;-70
2022/03/21 07:58:48;;;;;;;54.33;14.45;;;;;;;;;;4983274;28;20162;-70
2022/03/21 08:01:13;;;;;;;49.15;13.65;;;;;;;;;;4989753;28;20781;-71
2022/03/21 08:03:39;;;;;;;39.38;13.90;;;;;;;;;;4974546;28;20472;-70
2022/03/21 08:06:08;;;;;;;42.47;14.02;;;;;;;;;;4986048;28;20963;-69
2022/03/21 08:08:34;;;;;;;45.30;13.90;;;;;;;;;;4987244;28;20050;-70
2022/03/21 08:10:59;;;;;;;39.95;14.52;;;;;;;;;;4982601;28;20034;-68
2022/03/21 08:13:26;;;;;;;38.67;13.55;;;;;;;;;;4984389;28;20099;-69
2022/03/21 08:15:51;;;;;;;32.83;13.07;;;;;;;;;;5007286;28;20042;-70
2022/03/21 08:18:17;;;;;;;37.15;14.18;;;;;;;;;;5002903;28;20092;-69
2022/03/21 08:20:43;;;;;;;31.15;13.52;;;;;;;;;;5002864;28;20050;-71
2022/03/21 08:23:11;;;;;;;29.80;12.80;;;;;;;;;;5008095;28;20038;-69
2022/03/21 08:25:39;;;;;;;31.67;13.07;;;;;;;;;;5008676;28;20041;-68
2022/03/21 08:28:05;;;;;;;35.05;15.88;;;;;;;;;;4994633;28;20038;-70
2022/03/21 08:30:33;;;;;;;37.47;14.85;;;;;;;;;;5003248;28;20045;-68
2022/03/21 08:32:59;;;;;;;32.60;14.82;;;;;;;;;;5004601;28;20041;-69
2022/03/21 08:35:25;;;;;;;33.45;13.52;;;;;;;;;;4984312;28;20035;-71
2022/03/21 08:37:50;;;;;;;35.78;15.10;;;;;;;;;;4976980;28;20080;-69
2022/03/21 08:40:16;;;;;;;32.80;14.18;;;;;;;;;;4973932;28;20030;-69
2022/03/21 08:42:42;;;;;;;35.75;15.10;;;;;;;;;;5003681;28;20041;-70
2022/03/21 08:45:09;;;;;;;36.53;14.77;;;;;;;;;;5008744;28;20426;-71
2022/03/21 08:47:35;;;;;;;34.15;14.65;;;;;;;;;;5014114;28;20045;-70
2022/03/21 08:50:01;;;;;;;34.35;13.73;;;;;;;;;;5008530;28;20045;-69
2022/03/21 08:52:26;;;;;;;34.70;15.10;;;;;;;;;;5005126;28;20514;-70
2022/03/21 08:54:52;;;;;;;32.47;14.13;;;;;;;;;;4997870;28;20049;-68
2022/03/21 08:57:17;;;;;;;34.40;14.40;;;;;;;;;;5003220;28;20145;-70
2022/03/21 08:59:42;;;;;;;38.75;14.65;;;;;;;;;;5001414;28;20037;-71
2022/03/21 09:02:08;;;;;;;40.53;15.07;;;;;;;;;;4998233;28;20116;-70
2022/03/21 09:04:35;;;;;;;35.70;15.70;;;;;;;;;;5003438;28;21125;-69
2022/03/21 09:07:01;;;;;;;40.50;16.30;;;;;;;;;;5008375;28;20546;-69
2022/03/21 09:09:26;;;;;;;40.90;17.63;;;;;;;;;;5002559;28;20038;-70
2022/03/21 09:11:51;;;;;;;35.88;14.88;;;;;;;;;;5006920;28;20084;-70
2022/03/21 09:14:17;;;;;;;40.88;17.85;;;;;;;;;;4999473;28;20038;-69
2022/03/21 09:16:43;;;;;;;39.55;17.88;;;;;;;;;;5003363;28;20025;-69
2022/03/21 09:19:09;;;;;;;32.50;14.30;;;;;;;;;;5003950;28;20041;-69
2022/03/21 09:21:35;;;;;;;47.80;17.63;;;;;;;;;;4996052;28;20116;-69
2022/03/21 09:24:01;;;;;;;41.88;16.23;;;;;;;;;;5000294;28;20058;-69
2022/03/21 09:26:27;;;;;;;45.20;18.95;;;;;;;;;;5011276;28;20088;-67
2022/03/21 09:29:02;;;;;;;42.53;18.33;;;;;;;;;;5006412;28;20953;-67
2022/03/21 09:31:28;;;;;;;43.85;16.85;;;;;;;;;;5005859;28;20017;-67
2022/03/21 09:33:54;;;;;;;38.13;16.05;;;;;;;;;;5006147;28;20049;-69
2022/03/21 09:36:20;;;;;;;34.30;16.88;;;;;;;;;;5008373;28;20042;-66
2022/03/21 09:38:45;;;;;;;35.97;15.85;;;;;;;;;;5002185;28;20038;-68
2022/03/21 09:41:14;;;;;;;39.50;18.23;;;;;;;;;;4998809;28;20040;-67
2022/03/21 09:43:40;;;;;;;38.47;17.48;;;;;;;;;;5008126;28;20052;-69
2022/03/21 09:46:07;;;;;;;39.08;17.10;;;;;;;;;;5007798;28;20045;-70
2022/03/21 09:48:33;;;;;;;34.70;16.10;;;;;;;;;;5006241;28;20108;-68
2022/03/21 09:51:03;;;;;;;35.15;15.73;;;;;;;;;;5004110;28;20077;-68
2022/03/21 09:53:29;;;;;;;40.33;17.08;;;;;;;;;;5001469;28;20034;-69
2022/03/21 09:55:55;;;;;;;41.28;18.08;;;;;;;;;;4999087;28;20483;-67
2022/03/21 09:58:21;;;;;;;43.83;18.75;;;;;;;;;;5002593;28;20116;-67
2022/03/21 10:00:49;;;;;;;42.22;19.58;;;;;;;;;;5005101;28;20137;-68
2022/03/21 10:03:15;;;;;;;42.03;20.38;;;;;;;;;;5005619;28;20037;-67
2022/03/21 10:05:49;;;;;;;46.00;21.13;;;;;;;;;;5004776;28;20112;-72
2022/03/21 10:08:24;;;;;;;49.00;21.98;;;;;;;;;;5004874;28;20046;-71
2022/03/21 10:10:50;;;;;;;48.83;21.85;;;;;;;;;;5005427;28;20033;-71
2022/03/21 10:13:18;;;;;;;51.40;21.77;;;;;;;;;;5006456;28;20030;-71
2022/03/21 10:15:44;;;;;;;54.03;23.35;;;;;;;;;;5003498;28;20053;-70
2022/03/21 10:18:10;;;;;;;49.97;23.48;;;;;;;;;;5002291;28;20054;-71
2022/03/21 10:20:37;;;;;;;46.97;19.00;;;;;;;;;;5006689;28;20030;-72
2022/03/21 10:23:22;;;;;;;55.42;23.80;;;;;;;;;;5004997;28;20030;-72
2022/03/21 10:25:48;;;;;;;46.25;19.88;;;;;;;;;;5005666;28;20025;-72
2022/03/21 10:28:35;;;;;;;54.92;22.63;;;;;;;;;;4999224;28;20077;-73
2022/03/21 10:31:02;;;;;;;51.90;22.85;;;;;;;;;;5006769;28;20537;-71
2022/03/21 10:33:28;;;;;;;57.72;24.88;;;;;;;;;;4997383;28;20038;-74
2022/03/21 10:35:53;;;;;;;54.20;22.30;;;;;;;;;;5003303;28;20539;-73
2022/03/21 10:38:35;;;;;;;49.45;21.45;;;;;;;;;;5002099;28;20039;-74
2022/03/21 10:41:06;;;;;;;46.30;21.00;;;;;;;;;;5001922;28;20034;-75
2022/03/21 10:43:32;;;;;;;46.42;20.63;;;;;;;;;;5004700;28;20049;-73
2022/03/21 10:45:58;;;;;;;47.78;19.58;;;;;;;;;;5006455;28;20077;-72
2022/03/21 10:48:32;;;;;;;46.33;19.75;;;;;;;;;;5003793;28;20056;-72
2022/03/21 10:51:02;;;;;;;49.65;21.75;;;;;;;;;;5013012;28;20085;-74
2022/03/21 10:53:37;;;;;;;50.50;23.17;;;;;;;;;;5004357;28;20038;-75
2022/03/21 10:56:05;;;;;;;44.78;19.92;;;;;;;;;;4992643;28;20100;-76
2022/03/21 10:58:37;;;;;;;37.13;17.75;;;;;;;;;;5001775;28;20041;-72
2022/03/21 11:01:24;;;;;;;36.38;17.08;;;;;;;;;;5005037;28;20831;-72
2022/03/21 11:03:51;;;;;;;45.90;18.85;;;;;;;;;;4990545;28;20057;-72
2022/03/21 11:06:17;;;;;;;41.25;18.70;;;;;;;;;;5001097;28;20042;-73
2022/03/21 11:08:47;;;;;;;41.35;19.75;;;;;;;;;;5003558;28;20670;-72
2022/03/21 11:11:13;;;;;;;37.65;17.10;;;;;;;;;;5003131;28;20049;-73
2022/03/21 11:13:39;;;;;;;28.42;12.43;;;;;;;;;;5002561;28;20435;-73
2022/03/21 11:16:05;;;;;;;26.80;13.10;;;;;;;;;;5000511;28;20105;-70
2022/03/21 11:18:31;;;;;;;30.02;14.45;;;;;;;;;;5004735;28;20034;-70
2022/03/21 11:20:57;;;;;;;24.23;12.52;;;;;;;;;;5009640;28;20052;-70
2022/03/21 11:23:25;;;;;;;26.25;11.63;;;;;;;;;;5003759;28;20045;-70
2022/03/21 11:26:03;;;;;;;26.30;13.10;;;;;;;;;;5001982;28;20029;-70
2022/03/21 11:28:47;;;;;;;29.52;13.55;;;;;;;;;;5002127;28;20017;-70
2022/03/21 11:31:51;;;;;;;26.50;12.82;;;;;;;;;;5004627;28;20072;-70
2022/03/21 11:34:26;;;;;;;;;;;;;;;;;;4998257;28;20092;-69
2022/03/21 11:36:54;;;;;;;22.90;11.90;;;;;;;;;;4997208;28;19933;-73
2022/03/21 11:39:21;;;;;;;23.50;10.70;;;;;;;;;;5001590;28;20531;-72
2022/03/21 11:42:10;;;;;;;19.63;9.02;;;;;;;;;;4990053;28;20423;-72
2022/03/21 11:44:37;;;;;;;20.20;9.80;;;;;;;;;;4987077;28;20046;-71
2022/03/21 11:47:24;;;;;;;17.67;9.48;;;;;;;;;;4987028;28;20117;-72
2022/03/21 11:49:50;;;;;;;20.17;8.90;;;;;;;;;;4999884;28;20048;-72
2022/03/21 11:52:15;;;;;;;19.27;8.98;;;;;;;;;;4999400;28;20515;-72
2022/03/21 11:54:42;;;;;;;19.45;9.35;;;;;;;;;;5001494;28;20099;-72
2022/03/21 11:57:28;;;;;;;19.48;8.93;;;;;;;;;;5002796;28;20056;-72
2022/03/21 11:59:55;;;;;;;16.42;8.60;;;;;;;;;;5000240;28;20049;-72
2022/03/21 12:02:22;;;;;;;18.25;8.98;;;;;;;;;;4988996;28;20081;-72
2022/03/21 12:04:59;;;;;;;18.02;8.88;;;;;;;;;;4985059;28;20110;-72
2022/03/21 12:07:24;;;;;;;20.60;9.23;;;;;;;;;;4985012;28;20033;-72
2022/03/21 12:09:52;;;;;;;694.10;247.30;;;;;;;;;;4986292;28;20046;-72
2022/03/21 12:12:19;;;;;;;62.92;23.60;;;;;;;;;;4998802;28;20126;-72
2022/03/21 12:14:46;;;;;;;19.58;9.40;;;;;;;;;;5000959;28;20046;-72
2022/03/21 12:17:11;;;;;;;89.85;26.50;;;;;;;;;;4998278;28;20393;-72
2022/03/21 12:22:29;;;;;;;19.90;10.32;;;;;;;;;;4988356;28;20041;-71
2022/03/21 12:24:57;;;;;;;;;;;;;;;;;;4989370;28;20064;-72
2022/03/21 12:27:32;;;;;;;33.38;12.68;;;;;;;;;;4983807;28;19940;-72
2022/03/21 12:30:23;;;;;;;17.63;9.25;;;;;;;;;;4977357;28;20115;-72
2022/03/21 12:33:00;;;;;;;141.07;33.15;;;;;;;;;;4979082;28;20542;-71
2022/03/21 12:35:32;;;;;;;44.90;15.02;;;;;;;;;;4976840;28;20046;-70
2022/03/21 12:38:01;;;;;;;26.17;12.15;;;;;;;;;;4985249;28;20033;-71
2022/03/21 12:40:27;;;;;;;19.25;9.35;;;;;;;;;;4995083;28;20026;-71
2022/03/21 12:42:55;;;;;;;19.90;8.95;;;;;;;;;;4976647;28;20551;-70
2022/03/21 12:45:21;;;;;;;18.00;8.60;;;;;;;;;;4995216;28;20053;-71
2022/03/21 12:47:48;;;;;;;17.00;8.95;;;;;;;;;;5006071;28;20048;-70
2022/03/21 12:50:40;;;;;;;36.90;15.45;;;;;;;;;;4999737;28;20045;-71
2022/03/21 12:53:07;;;;;;;15.15;8.45;;;;;;;;;;5000795;28;20400;-73
2022/03/21 12:55:33;;;;;;;17.17;9.68;;;;;;;;;;4990126;28;20115;-72
2022/03/21 12:58:01;;;;;;;101.47;37.40;;;;;;;;;;4995029;28;20041;-71
2022/03/21 13:00:34;;;;;;;38.13;15.32;;;;;;;;;;4988191;28;20113;-70
2022/03/21 13:03:15;;;;;;;15.77;8.98;;;;;;;;;;5003828;28;20603;-71
2022/03/21 13:11:23;;;;;;;21.75;9.32;;;;;;;;;;4999461;28;20196;-72
2022/03/21 13:13:53;;;;;;;19.67;9.10;;;;;;;;;;5014534;28;20030;-72
2022/03/21 13:16:23;;;;;;;13.00;7.45;;;;;;;;;;4997956;28;20136;-73
2022/03/21 13:18:52;;;;;;;17.45;7.70;;;;;;;;;;4998001;28;20125;-69
2022/03/21 13:21:21;;;;;;;13.93;6.55;;;;;;;;;;5000108;28;20045;-70
2022/03/21 13:23:48;;;;;;;12.52;6.50;;;;;;;;;;5003892;28;20049;-69
2022/03/21 13:26:15;;;;;;;18.23;8.70;;;;;;;;;;5001885;28;20088;-71
2022/03/21 13:28:42;;;;;;;24.90;9.90;;;;;;;;;;5005910;28;20025;-71
2022/03/21 13:31:11;;;;;;;15.80;6.80;;;;;;;;;;4999708;28;20042;-71
2022/03/21 13:33:39;;;;;;;13.20;6.80;;;;;;;;;;4992829;28;20038;-72
2022/03/21 13:36:07;;;;;;;16.40;7.25;;;;;;;;;;4985176;28;20590;-70
2022/03/21 13:38:34;;;;;;;13.95;7.93;;;;;;;;;;5003299;28;20045;-70
2022/03/21 13:41:01;;;;;;;13.27;7.57;;;;;;;;;;4991660;28;20108;-70
2022/03/21 13:43:28;;;;;;;15.55;7.65;;;;;;;;;;5001904;28;20033;-69
2022/03/21 13:45:58;;;;;;;14.48;8.18;;;;;;;;;;4993096;28;20041;-70
2022/03/21 13:48:40;;;;;;;32.50;13.57;;;;;;;;;;4997490;28;20073;-70
2022/03/21 13:51:18;;;;;;;13.23;7.30;;;;;;;;;;4991554;28;20456;-71
2022/03/21 13:53:44;;;;;;;14.32;7.22;;;;;;;;;;5000028;28;20131;-71
2022/03/21 13:56:13;;;;;;;13.88;7.47;;;;;;;;;;5000667;28;20089;-71
2022/03/21 13:58:38;;;;;;;14.13;7.65;;;;;;;;;;5001058;28;20030;-70
2022/03/21 14:01:18;;;;;;;15.02;7.47;;;;;;;;;;5002993;28;20463;-71
2022/03/21 14:03:50;;;;;;;15.48;8.00;;;;;;;;;;5003741;28;20038;-70
2022/03/21 14:06:15;;;;;;;13.95;7.15;;;;;;;;;;5001123;28;20033;-71
2022/03/21 14:08:41;;;;;;;12.85;6.75;;;;;;;;;;5005470;28;20030;-69
2022/03/21 14:11:16;;;;;;;11.80;6.70;;;;;;;;;;5002734;28;20092;-70
2022/03/21 14:13:43;;;;;;;9.43;5.65;;;;;;;;;;5002270;28;20064;-70
2022/03/21 14:16:09;;;;;;;10.70;6.05;;;;;;;;;;5001697;28;20042;-71
2022/03/21 14:18:37;;;;;;;9.95;6.50;;;;;;;;;;5003663;28;20037;-71
2022/03/21 14:21:04;;;;;;;14.57;7.55;;;;;;;;;;5001034;28;20029;-71
2022/03/21 14:23:31;;;;;;;11.02;6.45;;;;;;;;;;5014250;28;20042;-71
2022/03/21 14:28:42;;;;;;;11.00;6.03;;;;;;;;;;5005251;28;20092;-72
2022/03/21 14:31:08;;;;;;;35.70;13.10;;;;;;;;;;5005174;28;20511;-72
2022/03/21 14:33:35;;;;;;;13.88;7.45;;;;;;;;;;5001920;28;20037;-72
2022/03/21 14:36:00;;;;;;;15.35;8.73;;;;;;;;;;5003833;28;20045;-72
2022/03/21 14:38:26;;;;;;;14.90;7.88;;;;;;;;;;5000350;28;20034;-70
2022/03/21 14:40:51;;;;;;;12.85;6.38;;;;;;;;;;5004215;28;20045;-71
2022/03/21 14:43:18;;;;;;;34.63;18.08;;;;;;;;;;5004424;28;20062;-72
2022/03/21 14:45:44;;;;;;;11.15;6.75;;;;;;;;;;5007455;28;20164;-71
2022/03/21 14:48:09;;;;;;;11.60;6.80;;;;;;;;;;5005772;28;20526;-71
2022/03/21 14:50:35;;;;;;;15.75;8.30;;;;;;;;;;5001865;28;20030;-72